createdAt,value
2023-01-06T00:02:18.097Z,99774.13
2023-01-06T00:04:51.395Z,99768.19
2023-01-06T00:07:26.289Z,99769.81
2023-01-06T00:09:59.570Z,99770.75
2023-01-06T00:12:33.255Z,99766.19
2023-01-06T00:15:08.113Z,99771.69
2023-01-06T00:17:42.361Z,99772.34
2023-01-06T00:20:15.625Z,99764.97
2023-01-06T00:22:50.220Z,99766.28
2023-01-06T00:25:23.453Z,99755.31
2023-01-06T00:27:56.927Z,99770.72
2023-01-06T00:30:30.377Z,99766.75
2023-01-06T00:33:04.003Z,99754.63
2023-01-06T00:35:37.236Z,99757.41
2023-01-06T00:38:14.872Z,99688.44
2023-01-06T00:40:48.044Z,99760.84
2023-01-06T00:43:21.292Z,99768.53
2023-01-06T00:45:54.784Z,99776.78
2023-01-06T00:48:28.265Z,99782.84
2023-01-06T00:51:02.009Z,99775.25
2023-01-06T00:53:36.593Z,99780.56
2023-01-06T00:56:10.138Z,99776.69
2023-01-06T00:58:43.392Z,99780.44
2023-01-06T01:01:16.770Z,99776.69
2023-01-06T01:03:50.433Z,99779.84
2023-01-06T01:06:23.990Z,99790.47
2023-01-06T01:09:00.972Z,99786.75
2023-01-06T01:11:52.198Z,99788.06
2023-01-06T01:14:26.334Z,99783.63
2023-01-06T01:17:00.158Z,99780.31
2023-01-06T01:19:33.790Z,99771.03
2023-01-06T01:22:07.641Z,99781.44
2023-01-06T01:24:42.272Z,99779.97
2023-01-06T01:27:16.290Z,99772.69
2023-01-06T01:29:49.435Z,99781.31
2023-01-06T01:32:22.708Z,99779.97
2023-01-06T01:34:55.894Z,99781.19
2023-01-06T01:37:31.215Z,99775.97
2023-01-06T01:40:07.596Z,99773.66
2023-01-06T01:42:41.153Z,99774.38
2023-01-06T01:45:23.829Z,99765.19
2023-01-06T01:48:01.102Z,99782.53
2023-01-06T01:50:37.936Z,99780.94
2023-01-06T01:53:15.167Z,99784.81
2023-01-06T01:55:51.770Z,99786.00
2023-01-06T01:58:28.333Z,99773.38
2023-01-06T02:01:01.559Z,99784.25
2023-01-06T02:03:35.132Z,99785.94
2023-01-06T02:06:14.768Z,99783.28
2023-01-06T02:08:55.859Z,99782.28
2023-01-06T02:11:34.098Z,99771.44
2023-01-06T02:14:11.986Z,99783.22
2023-01-06T02:16:58.418Z,99775.59
2023-01-06T02:20:09.077Z,99774.09
2023-01-06T02:23:24.380Z,99767.53
2023-01-06T02:26:31.985Z,99765.53
2023-01-06T02:29:42.955Z,99770.19
2023-01-06T02:32:33.764Z,99769.09
2023-01-06T02:35:22.551Z,99790.19
2023-01-06T02:38:06.076Z,99797.22
2023-01-06T02:40:56.929Z,99786.34
2023-01-06T02:43:40.201Z,99779.03
2023-01-06T02:46:24.704Z,99783.66
2023-01-06T02:49:11.712Z,99783.59
2023-01-06T02:51:49.666Z,99782.50
2023-01-06T02:54:32.539Z,99785.44
2023-01-06T02:57:13.036Z,99786.09
2023-01-06T02:59:52.172Z,99757.50
2023-01-06T03:02:28.485Z,99761.22
2023-01-06T03:05:06.017Z,99766.06
2023-01-06T03:07:40.478Z,99747.88
2023-01-06T03:10:17.365Z,99737.66
2023-01-06T03:12:55.548Z,99734.13
2023-01-06T03:15:29.168Z,99742.28
2023-01-06T03:18:02.654Z,99743.72
2023-01-06T03:20:37.621Z,99740.59
2023-01-06T03:23:10.908Z,99733.97
2023-01-06T03:25:44.317Z,99728.19
2023-01-06T03:28:17.962Z,99734.28
2023-01-06T03:30:56.803Z,99734.50
2023-01-06T03:33:39.435Z,99723.50
2023-01-06T03:36:24.309Z,99731.25
2023-01-06T03:39:04.075Z,99734.88
2023-01-06T03:41:59.880Z,99700.44
2023-01-06T03:44:43.613Z,99740.59
2023-01-06T03:47:25.010Z,99749.28
2023-01-06T03:50:07.315Z,99751.94
2023-01-06T03:52:46.785Z,99752.53
2023-01-06T03:55:24.397Z,99761.22
2023-01-06T03:58:00.488Z,99763.53
2023-01-06T04:00:37.935Z,99776.25
2023-01-06T04:03:14.947Z,99776.84
2023-01-06T04:05:48.151Z,99770.28
2023-01-06T04:08:23.140Z,99770.78
2023-01-06T04:10:56.808Z,99769.44
2023-01-06T04:13:30.039Z,99776.13
2023-01-06T04:16:03.840Z,99778.50
2023-01-06T04:18:37.354Z,99784.09
2023-01-06T04:21:10.622Z,99791.09
2023-01-06T04:23:45.383Z,99790.25
2023-01-06T04:26:19.038Z,99796.91
2023-01-06T04:28:52.319Z,99792.63
2023-01-06T04:31:25.599Z,99798.13
2023-01-06T04:33:58.778Z,99791.34
2023-01-06T04:36:32.024Z,99797.44
2023-01-06T04:39:06.711Z,99796.78
2023-01-06T04:41:40.191Z,99796.78
2023-01-06T04:44:13.616Z,99796.03
2023-01-06T04:46:46.932Z,99812.16
2023-01-06T04:49:20.487Z,99821.88
2023-01-06T04:51:54.574Z,99829.63
2023-01-06T04:54:29.275Z,99764.81
2023-01-06T04:57:02.980Z,99852.22
2023-01-06T04:59:36.476Z,99855.72
2023-01-06T05:02:09.800Z,99857.88
2023-01-06T05:04:47.631Z,99862.88
2023-01-06T05:07:21.409Z,99869.19
2023-01-06T05:09:56.006Z,99874.38
2023-01-06T05:12:39.138Z,99878.16
2023-01-06T05:15:13.493Z,99879.84
2023-01-06T05:17:46.850Z,99883.25
2023-01-06T05:20:20.053Z,99882.50
2023-01-06T05:22:53.445Z,99878.75
2023-01-06T05:25:28.528Z,99885.66
2023-01-06T05:28:01.925Z,99897.28
2023-01-06T05:30:35.213Z,99891.72
2023-01-06T05:33:08.546Z,99899.59
2023-01-06T05:35:41.886Z,99912.41
2023-01-06T05:38:15.514Z,99907.09
2023-01-06T05:40:54.000Z,99904.09
2023-01-06T05:43:28.122Z,99907.72
2023-01-06T05:46:05.304Z,99897.28
2023-01-06T05:48:39.566Z,99899.44
2023-01-06T05:51:15.217Z,99904.53
2023-01-06T05:53:49.761Z,99913.53
2023-01-06T05:56:25.379Z,99899.56
2023-01-06T05:58:58.728Z,99917.97
2023-01-06T06:01:33.356Z,99928.03
2023-01-06T06:04:06.621Z,99930.19
2023-01-06T06:06:39.997Z,99938.69
2023-01-06T06:09:13.689Z,99944.00
2023-01-06T06:11:54.974Z,99944.72
2023-01-06T06:14:28.485Z,99941.81
2023-01-06T06:17:02.625Z,99937.00
2023-01-06T06:19:35.836Z,99933.25
2023-01-06T06:22:10.747Z,99939.91
2023-01-06T06:24:44.526Z,99936.78
2023-01-06T06:27:19.288Z,99947.47
2023-01-06T06:29:52.741Z,99945.75
2023-01-06T06:32:26.098Z,99932.91
2023-01-06T06:34:59.771Z,99936.88
2023-01-06T06:37:33.161Z,99939.69
2023-01-06T06:40:08.076Z,99946.34
2023-01-06T06:42:42.836Z,99937.38
2023-01-06T06:45:16.288Z,99948.28
2023-01-06T06:47:55.520Z,99936.16
2023-01-06T06:50:29.026Z,99952.53
2023-01-06T06:53:02.758Z,99975.06
2023-01-06T06:55:36.444Z,99971.19
2023-01-06T06:58:11.063Z,99970.31
2023-01-06T07:00:44.514Z,99976.78
2023-01-06T07:03:17.985Z,99971.66
2023-01-06T07:05:53.022Z,99968.31
2023-01-06T07:08:27.749Z,99970.22
2023-01-06T07:11:01.760Z,99964.41
2023-01-06T07:13:36.969Z,99961.59
2023-01-06T07:16:11.210Z,99973.72
2023-01-06T07:18:45.181Z,99985.22
2023-01-06T07:21:18.445Z,99982.56
2023-01-06T07:23:51.972Z,99983.16
2023-01-06T07:26:25.616Z,99981.34
2023-01-06T07:29:00.266Z,99965.78
2023-01-06T07:31:33.591Z,99978.75
2023-01-06T07:34:07.049Z,99975.13
2023-01-06T07:36:40.330Z,99974.09
2023-01-06T07:39:13.729Z,99979.91
2023-01-06T07:41:47.465Z,100002.84
2023-01-06T07:44:22.251Z,100003.19
2023-01-06T07:46:55.826Z,99994.81
2023-01-06T07:49:29.103Z,100001.69
2023-01-06T07:52:02.425Z,100005.22
2023-01-06T07:54:36.103Z,100032.00
2023-01-06T07:57:09.520Z,100000.34
2023-01-06T07:59:44.557Z,100031.38
2023-01-06T08:02:18.040Z,100026.22
2023-01-06T08:04:51.432Z,100028.84
2023-01-06T08:07:24.682Z,100027.41
2023-01-06T08:09:57.851Z,100041.59
2023-01-06T08:12:31.627Z,100051.50
2023-01-06T08:15:08.275Z,100040.53
2023-01-06T08:17:43.151Z,100047.88
2023-01-06T08:20:16.785Z,100051.03
2023-01-06T08:22:50.249Z,100065.84
2023-01-06T08:25:23.417Z,100073.00
2023-01-06T08:27:58.473Z,100075.03
2023-01-06T08:30:39.952Z,100087.16
2023-01-06T08:33:13.456Z,100080.56
2023-01-06T08:35:47.774Z,100086.84
2023-01-06T08:38:21.213Z,100075.16
2023-01-06T08:40:54.990Z,100088.00
2023-01-06T08:43:29.780Z,100097.34
2023-01-06T08:46:07.233Z,100071.97
2023-01-06T08:48:40.756Z,100034.19
2023-01-06T08:51:17.426Z,100022.25
2023-01-06T08:53:51.423Z,100071.09
2023-01-06T08:56:27.430Z,100080.09
2023-01-06T08:59:02.768Z,100022.41
2023-01-06T09:01:37.831Z,100076.94
2023-01-06T09:04:12.471Z,100073.13
2023-01-06T09:06:47.437Z,100067.78
2023-01-06T09:09:21.112Z,100072.31
2023-01-06T09:11:56.126Z,100072.78
2023-01-06T09:14:30.499Z,100065.28
2023-01-06T09:17:05.555Z,100071.63
2023-01-06T09:19:38.769Z,100086.16
2023-01-06T09:22:12.339Z,100099.13
2023-01-06T09:24:45.990Z,100082.88
2023-01-06T09:27:19.958Z,100085.75
2023-01-06T09:29:53.359Z,100087.00
2023-01-06T09:32:28.280Z,100077.56
2023-01-06T09:35:01.484Z,100072.91
2023-01-06T09:37:34.864Z,100079.13
2023-01-06T09:40:11.271Z,100079.00
2023-01-06T09:42:55.785Z,100022.28
2023-01-06T09:45:38.117Z,100065.75
2023-01-06T09:48:18.808Z,100059.69
2023-01-06T09:50:55.222Z,100054.66
2023-01-06T09:53:33.171Z,100060.13
2023-01-06T09:56:10.202Z,100062.69
2023-01-06T09:58:48.597Z,100051.44
2023-01-06T10:01:30.598Z,100051.28
2023-01-06T10:04:05.601Z,100070.88
2023-01-06T10:06:44.656Z,100041.41
2023-01-06T10:09:27.596Z,100060.84
2023-01-06T10:12:14.556Z,100046.94
2023-01-06T10:14:59.505Z,100055.22
2023-01-06T10:17:49.703Z,100045.63
2023-01-06T10:20:45.776Z,100036.34
2023-01-06T10:23:39.470Z,100037.34
2023-01-06T10:26:14.880Z,100027.59
2023-01-06T10:28:53.297Z,99997.69
2023-01-06T10:31:33.209Z,100005.88
2023-01-06T10:34:18.319Z,100025.47
2023-01-06T10:36:58.316Z,100012.94
2023-01-06T10:39:33.102Z,100022.09
2023-01-06T10:42:36.616Z,100012.81
2023-01-06T10:45:12.939Z,100016.59
2023-01-06T10:47:46.639Z,100010.25
2023-01-06T10:50:21.061Z,100020.25
2023-01-06T10:52:56.365Z,99963.53
2023-01-06T10:55:53.500Z,100012.09
2023-01-06T10:58:35.857Z,100011.22
2023-01-06T11:01:11.690Z,99927.63
2023-01-06T11:03:47.291Z,100015.31
2023-01-06T11:06:27.481Z,100012.34
2023-01-06T11:09:08.765Z,100006.16
2023-01-06T11:11:54.211Z,100010.94
2023-01-06T11:14:31.770Z,100011.22
2023-01-06T11:17:08.949Z,100004.00
2023-01-06T11:19:43.967Z,99996.56
2023-01-06T11:22:35.870Z,99997.38
2023-01-06T11:25:29.658Z,99990.59
2023-01-06T11:28:18.011Z,100002.72
2023-01-06T11:30:53.950Z,99981.16
2023-01-06T11:33:29.215Z,100005.56
2023-01-06T11:36:10.651Z,99989.63
2023-01-06T11:38:47.376Z,99981.16
2023-01-06T11:41:32.285Z,99985.53
2023-01-06T11:44:10.242Z,99983.50
2023-01-06T11:46:50.427Z,99982.69
2023-01-06T11:49:27.998Z,99984.25
2023-01-06T11:52:04.135Z,99989.19
2023-01-06T11:54:39.429Z,99990.88
2023-01-06T11:57:33.350Z,99950.53
2023-01-06T12:00:23.806Z,99993.97
2023-01-06T12:03:07.676Z,99977.63
2023-01-06T12:05:48.997Z,99987.47
2023-01-06T12:08:26.438Z,99990.91
2023-01-06T12:11:06.690Z,99994.47
2023-01-06T12:13:45.004Z,99993.44
2023-01-06T12:16:38.500Z,99997.00
2023-01-06T12:19:17.645Z,99992.75
2023-01-06T12:21:52.669Z,99998.81
2023-01-06T12:24:27.642Z,99995.84
2023-01-06T12:27:05.487Z,99998.50
2023-01-06T12:29:40.597Z,99991.34
2023-01-06T12:32:19.786Z,99995.69
2023-01-06T12:34:55.395Z,99975.94
2023-01-06T12:37:34.179Z,99990.31
2023-01-06T12:40:16.933Z,99977.34
2023-01-06T12:42:57.014Z,99965.81
2023-01-06T12:45:41.138Z,99988.94
2023-01-06T12:48:24.741Z,99966.91
2023-01-06T12:51:02.657Z,99965.34
2023-01-06T12:53:40.371Z,99968.03
2023-01-06T12:56:36.401Z,99966.34
2023-01-06T12:59:18.781Z,99982.03
2023-01-06T13:02:01.125Z,99978.09
2023-01-06T13:05:14.789Z,99986.56
2023-01-06T13:07:56.648Z,99976.00
2023-01-06T13:10:38.539Z,99980.47
2023-01-06T13:13:36.492Z,99981.34
2023-01-06T13:16:18.139Z,99988.97
2023-01-06T13:19:04.340Z,99986.97
2023-01-06T13:21:39.518Z,99992.63
2023-01-06T13:24:38.947Z,99999.97
2023-01-06T13:27:47.229Z,99994.72
2023-01-06T13:30:43.834Z,99987.13
2023-01-06T13:33:37.231Z,100000.25
2023-01-06T13:36:47.161Z,100002.75
2023-01-06T13:39:24.747Z,100008.97
2023-01-06T13:42:02.587Z,100008.97
2023-01-06T13:44:39.886Z,100016.03
2023-01-06T13:47:17.289Z,100020.69
2023-01-06T13:49:51.535Z,100016.88
2023-01-06T13:52:29.423Z,100020.25
2023-01-06T13:55:26.190Z,100029.16
2023-01-06T13:58:36.206Z,100038.19
2023-01-06T14:01:10.907Z,100041.00
2023-01-06T14:03:44.749Z,100040.72
2023-01-06T14:06:45.998Z,100044.22
2023-01-06T14:09:22.398Z,100049.59
2023-01-06T14:12:09.535Z,100048.47
2023-01-06T14:14:43.367Z,100052.41
2023-01-06T14:17:31.489Z,100056.34
2023-01-06T14:20:05.900Z,100066.63
2023-01-06T14:22:39.602Z,100067.75
2023-01-06T14:25:24.573Z,100060.53
2023-01-06T14:28:22.985Z,100084.06
2023-01-06T14:31:48.589Z,100081.53
2023-01-06T14:34:22.718Z,100086.56
2023-01-06T14:36:57.128Z,100078.13
2023-01-06T14:39:33.609Z,100074.84
2023-01-06T14:42:17.023Z,100073.84
2023-01-06T14:44:53.637Z,100068.16
2023-01-06T14:47:32.861Z,100073.09
2023-01-06T14:50:13.942Z,100077.28
2023-01-06T14:52:54.241Z,100082.78
2023-01-06T14:55:30.747Z,100104.88
2023-01-06T14:58:05.436Z,100104.00
2023-01-06T15:00:46.484Z,100102.94
2023-01-06T15:03:23.577Z,100104.31
2023-01-06T15:06:11.795Z,100112.19
2023-01-06T15:08:44.976Z,100104.38
2023-01-06T15:11:25.723Z,100111.19
2023-01-06T15:14:00.859Z,100100.53
2023-01-06T15:16:37.463Z,100083.13
2023-01-06T15:19:16.648Z,100105.94
2023-01-06T15:21:53.111Z,100107.69
2023-01-06T15:24:31.178Z,100126.78
2023-01-06T15:27:07.430Z,100132.78
2023-01-06T15:29:50.685Z,100131.00
2023-01-06T15:32:27.075Z,100145.91
2023-01-06T15:35:01.442Z,100142.06
2023-01-06T15:37:35.132Z,100148.53
2023-01-06T15:40:11.464Z,100136.25
2023-01-06T15:42:45.158Z,100147.19
2023-01-06T15:45:28.377Z,100148.03
2023-01-06T15:48:09.322Z,100154.72
2023-01-06T15:50:42.829Z,100158.13
2023-01-06T15:53:24.700Z,100169.69
2023-01-06T15:55:57.935Z,100182.44
2023-01-06T15:58:35.512Z,100187.41
2023-01-06T16:01:15.841Z,100170.56
2023-01-06T16:03:52.819Z,100193.13
2023-01-06T16:06:28.668Z,100191.19
2023-01-06T16:09:35.822Z,100195.56
2023-01-06T16:12:18.742Z,100188.41
2023-01-06T16:14:52.749Z,100194.34
2023-01-06T16:17:31.994Z,100198.22
2023-01-06T16:20:08.256Z,100210.38
2023-01-06T16:22:49.818Z,100219.97
2023-01-06T16:25:25.564Z,100222.03
2023-01-06T16:28:00.622Z,100220.69
2023-01-06T16:30:36.512Z,100220.19
2023-01-06T16:33:42.769Z,100223.13
2023-01-06T16:36:18.401Z,100235.63
2023-01-06T16:38:51.932Z,100248.97
2023-01-06T16:41:25.637Z,100266.91
2023-01-06T16:43:59.858Z,100258.63
2023-01-06T16:46:33.109Z,100266.75
2023-01-06T16:49:11.780Z,100268.31
2023-01-06T16:51:48.449Z,100272.13
2023-01-06T16:54:22.625Z,100263.50
2023-01-06T16:56:56.135Z,100277.03
2023-01-06T16:59:36.155Z,100287.22
2023-01-06T17:02:14.756Z,100287.03
2023-01-06T17:04:49.496Z,100292.38
2023-01-06T17:07:25.437Z,100294.53
2023-01-06T17:10:00.225Z,100290.28
2023-01-06T17:12:51.616Z,100277.78
2023-01-06T17:15:25.606Z,100285.06
2023-01-06T17:17:59.272Z,100286.38
2023-01-06T17:20:34.259Z,100302.47
2023-01-06T17:23:07.446Z,100305.47
2023-01-06T17:25:43.222Z,100313.59
2023-01-06T17:28:22.935Z,100291.25
2023-01-06T17:30:56.482Z,100306.78
2023-01-06T17:33:30.699Z,100313.28
2023-01-06T17:36:07.350Z,100309.38
2023-01-06T17:38:42.591Z,100323.25
2023-01-06T17:41:17.178Z,100329.75
2023-01-06T17:43:50.607Z,100327.53
2023-01-06T17:46:30.186Z,100325.06
2023-01-06T17:49:12.014Z,100326.56
2023-01-06T17:51:48.063Z,100327.00
2023-01-06T17:54:37.419Z,100332.66
2023-01-06T17:57:14.462Z,100320.41
2023-01-06T17:59:50.030Z,100337.75
2023-01-06T18:02:39.327Z,100344.91
2023-01-06T18:05:49.890Z,100342.66
2023-01-06T18:08:26.823Z,100350.75
2023-01-06T18:11:23.401Z,100356.63
2023-01-06T18:14:02.620Z,100362.28
2023-01-06T18:16:36.344Z,100360.47
2023-01-06T18:19:24.822Z,100355.56
2023-01-06T18:21:58.991Z,100353.88
2023-01-06T18:24:38.620Z,100355.13
2023-01-06T18:27:18.750Z,100343.53
2023-01-06T18:29:52.974Z,100360.69
2023-01-06T18:32:31.264Z,100366.13
2023-01-06T18:35:10.562Z,100357.78
2023-01-06T18:37:44.168Z,100362.28
2023-01-06T18:40:23.859Z,100354.41
2023-01-06T18:42:57.608Z,100357.06
2023-01-06T18:45:35.323Z,100356.31
2023-01-06T18:48:16.174Z,100359.94
2023-01-06T18:50:52.050Z,100365.47
2023-01-06T18:53:28.902Z,100372.56
2023-01-06T18:56:05.595Z,100370.56
2023-01-06T18:58:46.539Z,100384.00
2023-01-06T19:01:22.968Z,100380.88
2023-01-06T19:04:04.251Z,100370.56
2023-01-06T19:06:42.951Z,100367.16
2023-01-06T19:09:25.411Z,100368.31
2023-01-06T19:12:26.460Z,100373.75
2023-01-06T19:15:14.034Z,100371.41
2023-01-06T19:17:48.617Z,100382.03
2023-01-06T19:20:25.794Z,100385.84
2023-01-06T19:22:59.080Z,100376.47
2023-01-06T19:25:35.566Z,100373.75
2023-01-06T19:28:18.573Z,100373.19
2023-01-06T19:30:53.092Z,100370.41
2023-01-06T19:33:42.556Z,100382.75
2023-01-06T19:36:36.008Z,100393.41
2023-01-06T19:39:22.454Z,100359.50
2023-01-06T19:42:00.434Z,100365.47
2023-01-06T19:44:36.750Z,100361.53
2023-01-06T19:47:19.319Z,100376.34
2023-01-06T19:49:55.944Z,100373.66
2023-01-06T19:52:34.572Z,100355.00
2023-01-06T19:55:26.595Z,100381.00
2023-01-06T19:58:03.959Z,100385.91
2023-01-06T20:00:48.319Z,100402.38
2023-01-06T20:03:30.794Z,100403.31
2023-01-06T20:06:05.934Z,100389.00
2023-01-06T20:08:41.181Z,100387.41
2023-01-06T20:11:14.696Z,100388.28
2023-01-06T20:13:48.447Z,100392.06
2023-01-06T20:16:23.556Z,100400.88
2023-01-06T20:18:56.944Z,100404.88
2023-01-06T20:21:30.317Z,100416.22
2023-01-06T20:24:05.270Z,100384.94
2023-01-06T20:26:39.076Z,100406.19
2023-01-06T20:29:12.877Z,100400.13
2023-01-06T20:31:48.766Z,100406.09
2023-01-06T20:34:22.598Z,100409.44
2023-01-06T20:36:56.145Z,100412.84
2023-01-06T20:39:30.620Z,100407.81
2023-01-06T20:42:05.780Z,100410.19
2023-01-06T20:44:39.198Z,100420.06
2023-01-06T20:47:13.775Z,100411.47
2023-01-06T20:49:47.169Z,100405.53
2023-01-06T20:52:20.903Z,100403.13
2023-01-06T20:54:54.183Z,100415.69
2023-01-06T20:57:27.938Z,100425.91
2023-01-06T21:00:01.299Z,100432.75
2023-01-06T21:02:36.511Z,100433.59
2023-01-06T21:05:10.183Z,100434.66
2023-01-06T21:07:43.416Z,100433.97
2023-01-06T21:10:16.779Z,100400.00
2023-01-06T21:12:53.252Z,100434.44
2023-01-06T21:15:27.191Z,100442.59
2023-01-06T21:18:02.323Z,100444.88
2023-01-06T21:20:35.986Z,100450.34
2023-01-06T21:23:10.112Z,100456.22
2023-01-06T21:25:43.622Z,100455.53
2023-01-06T21:28:17.382Z,100446.75
2023-01-06T21:30:50.820Z,100446.59
2023-01-06T21:33:25.606Z,100444.53
2023-01-06T21:35:59.088Z,100415.63
2023-01-06T21:38:34.623Z,100439.38
2023-01-06T21:41:21.924Z,100437.47
2023-01-06T21:43:55.285Z,100435.97
2023-01-06T21:46:28.565Z,100450.41
2023-01-06T21:49:03.554Z,100450.44
2023-01-06T21:51:37.953Z,100452.75
2023-01-06T21:54:11.574Z,100450.56
2023-01-06T21:56:44.829Z,100441.84
2023-01-06T21:59:18.441Z,100434.84
2023-01-06T22:01:51.880Z,100439.03
2023-01-06T22:04:26.628Z,100439.53
2023-01-06T22:07:03.299Z,100446.19
2023-01-06T22:09:37.664Z,100446.19
2023-01-06T22:12:14.133Z,100440.47
2023-01-06T22:14:51.619Z,100444.81
2023-01-06T22:17:25.298Z,100444.06
2023-01-06T22:20:00.103Z,100438.25
2023-01-06T22:22:35.756Z,100428.81
2023-01-06T22:25:09.854Z,100437.66
2023-01-06T22:27:43.178Z,100428.75
2023-01-06T22:30:16.615Z,100433.91
2023-01-06T22:32:50.361Z,100427.22
2023-01-06T22:35:25.899Z,100429.97
2023-01-06T22:38:00.275Z,100425.94
2023-01-06T22:40:33.481Z,100431.00
2023-01-06T22:43:07.134Z,100396.41
2023-01-06T22:45:40.492Z,100435.53
2023-01-06T22:48:13.665Z,100439.97
2023-01-06T22:50:48.358Z,100443.19
2023-01-06T22:53:21.893Z,100432.22
2023-01-06T22:55:59.246Z,100436.22
2023-01-06T22:58:33.389Z,100436.41
2023-01-06T23:01:07.967Z,100435.19
2023-01-06T23:03:41.535Z,100438.44
2023-01-06T23:06:16.707Z,100430.94
2023-01-06T23:09:00.118Z,100432.47
2023-01-06T23:11:36.936Z,100437.50
2023-01-06T23:14:12.452Z,100408.09
2023-01-06T23:16:46.412Z,100436.50
2023-01-06T23:19:20.002Z,100436.13
2023-01-06T23:21:54.587Z,100425.56
2023-01-06T23:24:27.795Z,100421.78
2023-01-06T23:27:01.070Z,100416.94
2023-01-06T23:29:34.412Z,100412.53
2023-01-06T23:32:07.692Z,100412.03
2023-01-06T23:34:41.113Z,100408.38
2023-01-06T23:37:16.049Z,100402.69
2023-01-06T23:39:49.801Z,100399.56
2023-01-06T23:42:22.980Z,100411.72
2023-01-06T23:44:56.189Z,100421.78
2023-01-06T23:47:29.491Z,100416.63
2023-01-06T23:50:02.620Z,100410.16
2023-01-06T23:52:37.571Z,100422.22
2023-01-06T23:55:11.388Z,100404.25
2023-01-06T23:57:44.726Z,100429.75
